Time;durP1;ratioP1;P1;durP2;ratioP2;P2;SDS_P1;SDS_P2;PMS_P1;PMS_P2;Temp;Humidity;BMP_temperature;BMP_pressure;BME280_temperature;BME280_humidity;BME280_pressure;Samples;Min_cycle;Max_cycle;Signal;HPM_P1;HPM_P2
2022/12/09 00:01:10;;;;;;;41.15;22.52;;;;;;;4.47;100.00;95317.22;4961895;28;20183;-41
2022/12/09 00:03:39;;;;;;;39.47;21.38;;;;;;;4.48;100.00;95308.44;4944996;28;20103;-39
2022/12/09 00:06:09;;;;;;;39.88;21.17;;;;;;;4.40;100.00;95311.69;4959050;28;20086;-51
2022/12/09 00:08:37;;;;;;;35.10;21.40;;;;;;;4.49;100.00;95313.50;4950308;28;20078;-45
2022/12/09 00:11:06;;;;;;;40.05;21.45;;;;;;;4.66;100.00;95325.06;4950555;28;20109;-43
2022/12/09 00:13:34;;;;;;;38.70;21.60;;;;;;;4.72;100.00;95324.53;4949485;28;20079;-44
2022/12/09 00:16:07;;;;;;;39.30;21.17;;;;;;;4.82;100.00;95326.31;4950159;28;20154;-43
2022/12/09 00:18:36;;;;;;;41.15;22.00;;;;;;;4.93;100.00;95324.41;4950698;28;20082;-45
2022/12/09 00:21:12;;;;;;;42.97;21.52;;;;;;;4.70;100.00;95329.06;4945831;28;20082;-42
2022/12/09 00:23:40;;;;;;;43.65;21.88;;;;;;;4.74;100.00;95313.94;4949376;28;20086;-41
2022/12/09 00:26:09;;;;;;;37.38;21.65;;;;;;;4.91;100.00;95315.84;4948503;28;20090;-44
2022/12/09 00:28:38;;;;;;;38.25;21.70;;;;;;;5.06;100.00;95304.97;4948299;28;20067;-44
2022/12/09 00:31:08;;;;;;;38.22;20.67;;;;;;;5.07;100.00;95317.94;4952833;28;20082;-44
2022/12/09 00:33:37;;;;;;;38.67;21.33;;;;;;;5.00;100.00;95311.59;4953544;28;20079;-42
2022/12/09 00:36:06;;;;;;;34.33;19.92;;;;;;;4.66;100.00;95311.19;4944363;28;20094;-44
2022/12/09 00:38:34;;;;;;;41.38;21.08;;;;;;;4.62;100.00;95305.41;4949087;28;20105;-42
2022/12/09 00:41:02;;;;;;;36.40;21.35;;;;;;;4.95;100.00;95298.94;4948271;28;20095;-47
2022/12/09 00:43:31;;;;;;;40.53;22.30;;;;;;;5.11;100.00;95297.56;4945935;28;20574;-51
2022/12/09 00:46:00;;;;;;;39.60;21.70;;;;;;;5.18;100.00;95296.03;4945801;28;20074;-45
2022/12/09 00:48:33;;;;;;;36.85;21.90;;;;;;;5.17;100.00;95289.19;4948526;28;20082;-46
2022/12/09 00:51:01;;;;;;;35.50;21.13;;;;;;;5.03;100.00;95287.00;4948019;28;20078;-46
2022/12/09 00:53:30;;;;;;;33.88;19.67;;;;;;;4.73;100.00;95280.97;4945112;28;20090;-42
2022/12/09 00:55:58;;;;;;;37.92;21.13;;;;;;;4.57;100.00;95268.44;4950384;28;20199;-42
2022/12/09 00:58:27;;;;;;;36.67;21.88;;;;;;;4.28;100.00;95271.03;4949005;28;20550;-45
2022/12/09 01:00:55;;;;;;;36.70;19.90;;;;;;;4.02;100.00;95262.88;4946010;28;20093;-45
2022/12/09 01:03:24;;;;;;;36.00;21.15;;;;;;;4.29;100.00;95270.91;4947951;28;20082;-48
2022/12/09 01:05:54;;;;;;;37.50;21.23;;;;;;;4.32;100.00;95274.22;4946295;28;20097;-46
2022/12/09 01:08:23;;;;;;;38.33;20.92;;;;;;;4.36;100.00;95283.41;4947980;28;20582;-42
2022/12/09 01:10:51;;;;;;;38.28;21.20;;;;;;;4.55;100.00;95280.81;4946528;28;20082;-45
2022/12/09 01:13:20;;;;;;;40.45;21.65;;;;;;;4.21;100.00;95275.16;4946602;28;20090;-42
2022/12/09 01:15:48;;;;;;;39.22;21.75;;;;;;;4.13;100.00;95274.97;4943793;28;20183;-41
2022/12/09 01:18:16;;;;;;;42.35;23.52;;;;;;;3.61;100.00;95256.84;4944037;28;20101;-44
2022/12/09 01:20:44;;;;;;;41.65;23.75;;;;;;;3.50;100.00;95247.34;4957491;28;20455;-47
2022/12/09 01:23:14;;;;;;;36.15;21.08;;;;;;;3.74;100.00;95261.84;4946520;28;20116;-45
2022/12/09 01:25:42;;;;;;;34.67;21.27;;;;;;;3.90;100.00;95256.97;4945615;28;20091;-43
2022/12/09 01:28:11;;;;;;;40.38;20.52;;;;;;;3.74;100.00;95259.25;4948971;28;20508;-45
2022/12/09 01:30:39;;;;;;;44.35;21.73;;;;;;;3.87;100.00;95253.81;4947269;28;20074;-47
2022/12/09 01:33:08;;;;;;;39.22;21.30;;;;;;;3.94;100.00;95253.13;4944823;28;20866;-42
2022/12/09 01:35:40;;;;;;;40.30;21.02;;;;;;;3.91;100.00;95258.59;4950012;28;20089;-42
2022/12/09 01:38:08;;;;;;;40.30;21.20;;;;;;;4.08;100.00;95264.16;4907318;28;1149240;-41
2022/12/09 01:40:38;;;;;;;39.80;22.40;;;;;;;3.98;100.00;95254.50;4946943;28;20136;-42
2022/12/09 01:43:13;;;;;;;38.83;21.70;;;;;;;3.94;100.00;95255.75;4948515;28;20089;-42
2022/12/09 01:45:42;;;;;;;38.85;20.75;;;;;;;4.05;100.00;95255.63;4946309;28;20083;-49
2022/12/09 01:48:13;;;;;;;40.05;21.75;;;;;;;4.06;100.00;95253.84;4946232;28;20089;-43
2022/12/09 01:50:46;;;;;;;37.83;21.05;;;;;;;3.96;100.00;95242.59;4952590;28;20155;-41
2022/12/09 01:53:16;;;;;;;35.30;20.85;;;;;;;3.60;100.00;95244.78;4945273;28;20183;-45
2022/12/09 01:55:46;;;;;;;36.25;20.38;;;;;;;3.60;100.00;95250.00;4945168;28;20161;-46
2022/12/09 01:58:14;;;;;;;36.90;21.08;;;;;;;3.75;100.00;95240.88;4948126;28;20074;-50
2022/12/09 02:00:43;;;;;;;36.72;21.02;;;;;;;4.03;100.00;95234.06;4947486;28;20098;-44
2022/12/09 02:03:12;;;;;;;36.35;21.38;;;;;;;4.18;100.00;95247.53;4944718;28;20087;-41
2022/12/09 02:05:41;;;;;;;36.50;21.48;;;;;;;4.20;100.00;95237.00;4944586;28;20063;-41
2022/12/09 02:08:12;;;;;;;36.97;20.02;;;;;;;4.18;100.00;95233.69;4951674;28;20116;-43
2022/12/09 02:10:47;;;;;;;37.10;21.88;;;;;;;3.90;100.00;95212.63;4945209;28;20082;-42
2022/12/09 02:13:23;;;;;;;38.88;22.50;;;;;;;4.19;100.00;95225.72;4948238;28;20094;-43
2022/12/09 02:15:53;;;;;;;38.40;21.77;;;;;;;4.10;100.00;95216.09;4945857;28;20306;-48
2022/12/09 02:18:25;;;;;;;39.25;21.27;;;;;;;4.10;100.00;95213.50;4945150;28;20106;-54
2022/12/09 02:20:57;;;;;;;35.30;20.70;;;;;;;4.25;100.00;95209.50;4962364;28;20078;-47
2022/12/09 02:23:30;;;;;;;39.65;22.45;;;;;;;4.15;100.00;95210.47;4943268;28;20301;-45
2022/12/09 02:26:05;;;;;;;38.85;21.60;;;;;;;3.95;100.00;95214.81;4945971;28;20062;-45
2022/12/09 02:29:03;;;;;;;44.20;22.92;;;;;;;4.09;100.00;95208.41;4946452;28;20223;-52
2022/12/09 02:31:43;;;;;;;39.00;22.30;;;;;;;4.04;100.00;95193.97;4941435;28;20075;-43
2022/12/09 02:34:17;;;;;;;38.88;21.15;;;;;;;4.11;100.00;95209.09;4946861;28;20463;-48
2022/12/09 02:36:53;;;;;;;33.72;20.23;;;;;;;4.15;100.00;95194.81;4950743;28;20431;-45
2022/12/09 02:39:26;;;;;;;38.85;21.60;;;;;;;3.87;100.00;95194.66;4947926;28;20083;-44
2022/12/09 02:41:56;;;;;;;36.60;21.65;;;;;;;3.84;100.00;95174.06;4944712;28;20102;-42
2022/12/09 02:44:25;;;;;;;37.45;21.27;;;;;;;3.94;100.00;95172.28;4944918;28;20067;-54
2022/12/09 02:46:55;;;;;;;38.83;22.08;;;;;;;4.01;100.00;95185.59;4944241;28;20849;-42
2022/12/09 02:49:25;;;;;;;39.50;21.25;;;;;;;4.04;100.00;95201.81;4946950;28;20074;-50
2022/12/09 02:51:54;;;;;;;36.70;21.83;;;;;;;4.17;100.00;95206.78;4953723;28;20093;-44
2022/12/09 02:54:24;;;;;;;40.20;21.63;;;;;;;4.02;100.00;95200.28;4943027;28;20550;-48
2022/12/09 02:56:57;;;;;;;41.10;22.17;;;;;;;4.18;100.00;95197.97;4944185;28;20067;-41
2022/12/09 02:59:25;;;;;;;38.97;21.80;;;;;;;4.35;100.00;95191.25;4946125;28;20498;-47
2022/12/09 03:02:00;;;;;;;34.47;19.92;;;;;;;4.17;100.00;95185.09;4943745;28;20126;-51
2022/12/09 03:04:31;;;;;;;36.58;20.80;;;;;;;4.19;100.00;95183.97;4944106;28;20074;-43
2022/12/09 03:07:11;;;;;;;38.95;20.58;;;;;;;4.03;100.00;95178.47;4949947;28;20093;-48
2022/12/09 03:09:42;;;;;;;36.93;19.63;;;;;;;4.07;100.00;95173.81;4948609;28;20101;-43
2022/12/09 03:12:11;;;;;;;39.50;21.10;;;;;;;4.35;100.00;95175.59;4947878;28;20147;-45
2022/12/09 03:14:42;;;;;;;30.88;18.50;;;;;;;4.40;100.00;95159.50;4944602;28;21628;-48
2022/12/09 03:17:13;;;;;;;35.33;19.75;;;;;;;4.29;100.00;95157.88;4950463;28;20423;-44
2022/12/09 03:19:46;;;;;;;33.22;19.77;;;;;;;4.23;100.00;95158.41;4944766;28;20451;-42
2022/12/09 03:22:17;;;;;;;36.47;19.65;;;;;;;4.38;100.00;95146.63;4947873;28;20074;-43
2022/12/09 03:24:49;;;;;;;33.30;18.95;;;;;;;4.15;100.00;95153.06;4949671;28;20079;-50
2022/12/09 03:27:24;;;;;;;35.83;20.30;;;;;;;4.11;100.00;95141.28;4946016;28;20511;-42
2022/12/09 03:29:53;;;;;;;34.00;19.88;;;;;;;4.12;100.00;95150.75;4944740;28;20075;-44
2022/12/09 03:32:25;;;;;;;36.22;19.95;;;;;;;4.25;100.00;95146.88;4943621;28;20082;-42
2022/12/09 03:34:59;;;;;;;34.35;20.05;;;;;;;4.15;100.00;95147.84;4946274;28;20156;-47
2022/12/09 03:37:28;;;;;;;33.75;20.50;;;;;;;4.01;100.00;95154.31;4949183;28;20063;-49
2022/12/09 03:39:58;;;;;;;35.00;19.83;;;;;;;3.87;100.00;95152.94;4946780;28;20078;-42
2022/12/09 03:42:31;;;;;;;35.35;19.63;;;;;;;3.85;100.00;95149.63;4946313;28;20082;-42
2022/12/09 03:45:02;;;;;;;34.42;19.98;;;;;;;3.85;100.00;95133.16;4945472;28;22632;-45
2022/12/09 03:47:30;;;;;;;34.88;19.75;;;;;;;3.67;100.00;95130.41;4946532;28;20055;-41
2022/12/09 03:50:00;;;;;;;31.60;19.05;;;;;;;3.70;100.00;95133.56;4949118;28;20531;-41
2022/12/09 03:52:32;;;;;;;29.58;19.17;;;;;;;3.93;100.00;95135.94;4942980;28;20059;-42
2022/12/09 03:55:05;;;;;;;33.35;19.20;;;;;;;3.56;100.00;95139.16;4946823;28;20065;-45
2022/12/09 03:57:36;;;;;;;30.55;19.40;;;;;;;3.66;100.00;95139.19;4945058;28;20110;-45
2022/12/09 04:00:06;;;;;;;37.25;19.95;;;;;;;3.55;100.00;95127.91;4945174;28;20578;-47
2022/12/09 04:02:35;;;;;;;31.67;18.15;;;;;;;3.65;100.00;95119.28;4943061;28;20079;-45
2022/12/09 04:05:06;;;;;;;35.25;20.23;;;;;;;3.58;100.00;95119.00;4940368;28;20078;-44
2022/12/09 04:07:35;;;;;;;34.38;20.88;;;;;;;3.54;100.00;95113.25;4945368;28;20141;-48
2022/12/09 04:10:04;;;;;;;30.35;18.48;;;;;;;3.68;100.00;95111.19;4959908;28;20078;-43
2022/12/09 04:12:34;;;;;;;33.63;18.20;;;;;;;3.52;100.00;95116.94;4942643;28;20075;-45
2022/12/09 04:15:02;;;;;;;32.97;18.65;;;;;;;3.85;100.00;95113.13;4945980;28;20093;-43
2022/12/09 04:17:30;;;;;;;32.13;19.08;;;;;;;3.91;100.00;95117.78;4944992;28;20527;-43
2022/12/09 04:19:59;;;;;;;33.05;19.30;;;;;;;3.58;100.00;95126.84;4955189;28;20078;-41
2022/12/09 04:22:29;;;;;;;31.13;19.10;;;;;;;3.91;100.00;95114.38;4946620;28;20090;-45
2022/12/09 04:24:57;;;;;;;31.80;19.95;;;;;;;3.98;100.00;95120.69;4950217;28;20086;-46
2022/12/09 04:27:26;;;;;;;34.83;19.33;;;;;;;3.92;100.00;95109.03;4948582;28;20086;-46
2022/12/09 04:29:54;;;;;;;33.78;19.80;;;;;;;4.12;100.00;95104.59;4948579;28;20098;-47
2022/12/09 04:32:22;;;;;;;34.30;19.00;;;;;;;4.18;100.00;95111.88;4948843;28;20086;-50
2022/12/09 04:34:51;;;;;;;34.63;19.83;;;;;;;4.17;100.00;95114.66;4947584;28;20090;-42
2022/12/09 04:37:20;;;;;;;31.10;18.67;;;;;;;4.23;100.00;95106.25;4948953;28;20086;-41
2022/12/09 04:39:49;;;;;;;31.75;20.00;;;;;;;3.97;100.00;95098.16;4947644;28;20091;-41
2022/12/09 04:42:18;;;;;;;29.38;18.98;;;;;;;3.76;100.00;95098.31;4949008;28;20442;-40
2022/12/09 04:44:47;;;;;;;31.42;18.92;;;;;;;3.92;100.00;95102.97;4948015;28;20511;-51
2022/12/09 04:47:15;;;;;;;32.15;18.90;;;;;;;4.04;100.00;95094.88;4949709;28;20063;-51
2022/12/09 04:49:44;;;;;;;34.25;19.13;;;;;;;4.07;100.00;95093.78;4947715;28;20089;-43
2022/12/09 04:52:12;;;;;;;30.63;18.38;;;;;;;4.13;100.00;95095.00;4949337;28;20447;-43
2022/12/09 04:54:40;;;;;;;34.25;19.58;;;;;;;3.91;100.00;95088.28;4949848;28;20075;-41
2022/12/09 04:57:11;;;;;;;31.77;19.05;;;;;;;4.06;100.00;95081.72;4946692;28;20086;-45
2022/12/09 04:59:39;;;;;;;31.38;18.05;;;;;;;3.96;100.00;95086.09;4947611;28;20075;-41
2022/12/09 05:02:07;;;;;;;29.95;18.48;;;;;;;4.09;100.00;95073.56;4948380;28;20105;-45
2022/12/09 05:04:36;;;;;;;30.70;18.15;;;;;;;4.07;100.00;95079.91;4947206;28;20083;-49
2022/12/09 05:07:05;;;;;;;31.08;18.05;;;;;;;3.94;100.00;95080.19;4948419;28;20447;-41
2022/12/09 05:09:34;;;;;;;36.75;19.35;;;;;;;3.96;100.00;95073.06;4949855;28;20089;-40
2022/12/09 05:12:02;;;;;;;33.15;19.05;;;;;;;3.72;100.00;95070.88;4949357;28;20078;-44
2022/12/09 05:14:32;;;;;;;31.65;18.73;;;;;;;3.95;100.00;95066.19;4949025;28;20475;-41
2022/12/09 05:17:02;;;;;;;33.65;19.73;;;;;;;3.90;100.00;95069.22;4950994;28;20075;-44
2022/12/09 05:19:31;;;;;;;39.33;21.08;;;;;;;3.55;100.00;95073.19;4949150;28;20079;-46
2022/12/09 05:21:59;;;;;;;36.95;20.33;;;;;;;3.68;100.00;95065.13;4947423;28;20471;-46
2022/12/09 05:24:27;;;;;;;34.35;20.30;;;;;;;3.81;100.00;95060.41;4945264;28;20090;-45
2022/12/09 05:26:56;;;;;;;35.58;18.30;;;;;;;3.31;100.00;95054.50;4947732;28;20557;-44
2022/12/09 05:29:24;;;;;;;30.10;16.98;;;;;;;3.55;100.00;95047.13;4949888;28;20082;-49
2022/12/09 05:31:54;;;;;;;41.40;21.23;;;;;;;3.32;100.00;95040.53;4947722;28;20063;-42
2022/12/09 05:34:23;;;;;;;34.47;19.23;;;;;;;3.41;100.00;95038.91;4946008;28;20083;-42
2022/12/09 05:36:52;;;;;;;40.80;22.45;;;;;;;3.30;100.00;95035.47;4954386;28;20090;-46
2022/12/09 05:39:20;;;;;;;33.25;19.73;;;;;;;3.40;100.00;95027.63;4948414;28;20086;-43
2022/12/09 05:41:49;;;;;;;35.88;21.23;;;;;;;3.76;100.00;95033.94;4951199;28;20136;-49
2022/12/09 05:44:17;;;;;;;41.28;21.75;;;;;;;4.03;100.00;95025.41;4947111;28;20067;-50
2022/12/09 05:46:46;;;;;;;37.80;20.77;;;;;;;4.04;100.00;95034.88;4946052;28;20387;-46
2022/12/09 05:49:16;;;;;;;39.80;22.17;;;;;;;4.34;100.00;95024.41;4950933;28;20089;-45
2022/12/09 05:51:44;;;;;;;45.05;23.83;;;;;;;4.42;100.00;95033.16;4946549;28;21704;-44
2022/12/09 05:54:13;;;;;;;41.97;23.67;;;;;;;4.36;100.00;95014.63;4948059;28;20461;-42
2022/12/09 05:56:41;;;;;;;43.95;22.15;;;;;;;4.42;100.00;95021.88;4947894;28;20085;-40
2022/12/09 05:59:15;;;;;;;41.85;22.85;;;;;;;4.32;100.00;95028.94;4951083;28;20470;-45
2022/12/09 06:01:44;;;;;;;42.60;23.08;;;;;;;4.51;100.00;95026.25;4945416;28;20082;-38
2022/12/09 06:04:12;;;;;;;40.53;21.55;;;;;;;4.52;100.00;95018.28;4947271;28;20086;-48
2022/12/09 06:06:42;;;;;;;41.00;23.20;;;;;;;4.55;100.00;95016.34;4946392;28;20075;-49
2022/12/09 06:09:11;;;;;;;43.55;21.75;;;;;;;4.23;100.00;95028.81;4947311;28;20187;-44
2022/12/09 06:11:40;;;;;;;42.75;23.38;;;;;;;4.13;100.00;95021.94;4947625;28;20079;-43
2022/12/09 06:14:10;;;;;;;42.92;23.42;;;;;;;4.03;100.00;95022.81;4947841;28;20163;-42
2022/12/09 06:16:39;;;;;;;40.43;21.43;;;;;;;4.13;100.00;95020.19;4944764;28;20467;-45
2022/12/09 06:19:10;;;;;;;41.28;23.08;;;;;;;4.53;100.00;95025.13;4945852;28;20102;-47
2022/12/09 06:21:39;;;;;;;47.47;23.83;;;;;;;4.66;100.00;95019.59;4946000;28;20083;-43
2022/12/09 06:24:10;;;;;;;47.35;24.23;;;;;;;4.46;100.00;95008.41;4946279;28;20075;-47
2022/12/09 06:26:38;;;;;;;47.85;23.63;;;;;;;4.52;100.00;95010.44;4945711;28;20553;-46
2022/12/09 06:29:07;;;;;;;47.85;24.90;;;;;;;4.60;100.00;95014.94;4942940;28;21815;-42
2022/12/09 06:31:35;;;;;;;47.08;25.20;;;;;;;4.60;100.00;95012.34;4947417;28;20089;-44
2022/12/09 06:34:04;;;;;;;47.95;24.50;;;;;;;4.69;100.00;95002.84;4945258;28;20168;-42
2022/12/09 06:36:33;;;;;;;46.35;24.48;;;;;;;4.54;100.00;95005.06;4945698;28;20475;-43
2022/12/09 06:39:03;;;;;;;44.78;23.63;;;;;;;4.62;100.00;95001.75;4945518;28;20527;-42
2022/12/09 06:41:40;;;;;;;43.97;22.92;;;;;;;4.26;100.00;94997.19;4943549;28;20539;-43
2022/12/09 06:44:08;;;;;;;49.72;24.52;;;;;;;4.56;100.00;94991.88;4954568;28;20094;-44
2022/12/09 06:46:37;;;;;;;42.88;23.02;;;;;;;4.41;100.00;94994.97;4946033;28;20082;-45
2022/12/09 06:49:06;;;;;;;42.25;23.63;;;;;;;4.64;100.00;94994.59;4944138;28;20089;-45
2022/12/09 06:51:35;;;;;;;43.08;23.83;;;;;;;4.79;100.00;94993.16;4944507;28;20753;-42
2022/12/09 06:54:05;;;;;;;44.95;23.15;;;;;;;4.96;100.00;94994.19;4945203;28;20085;-46
2022/12/09 06:56:34;;;;;;;48.05;23.90;;;;;;;5.06;100.00;94987.09;4945714;28;20082;-46
2022/12/09 06:59:07;;;;;;;44.95;24.88;;;;;;;5.07;100.00;94982.69;4947474;28;20094;-46
2022/12/09 07:01:36;;;;;;;42.85;22.83;;;;;;;4.80;100.00;94980.94;4943948;28;20714;-41
2022/12/09 07:04:06;;;;;;;44.83;24.00;;;;;;;4.81;100.00;94985.16;4943992;28;20087;-44
2022/12/09 07:06:36;;;;;;;43.67;24.47;;;;;;;4.88;100.00;94979.22;4952838;28;20085;-41
2022/12/09 07:09:07;;;;;;;46.47;24.73;;;;;;;4.85;100.00;94986.50;4944086;28;20089;-41
2022/12/09 07:11:36;;;;;;;42.72;23.75;;;;;;;4.91;100.00;94980.72;4946217;28;20457;-46
2022/12/09 07:14:05;;;;;;;45.85;22.88;;;;;;;4.92;100.00;94977.97;4948974;28;20531;-43
2022/12/09 07:16:35;;;;;;;43.90;23.63;;;;;;;4.88;100.00;94975.78;4944873;28;20621;-40
2022/12/09 07:19:04;;;;;;;44.50;23.42;;;;;;;4.72;100.00;94979.03;4943240;28;20083;-43
2022/12/09 07:21:33;;;;;;;42.97;22.77;;;;;;;5.02;100.00;94979.69;4945860;28;20097;-43
2022/12/09 07:24:03;;;;;;;47.10;23.98;;;;;;;4.66;100.00;94971.78;4944642;28;20097;-47
2022/12/09 07:26:32;;;;;;;45.88;24.35;;;;;;;4.91;100.00;94983.31;4952194;28;20085;-42
2022/12/09 07:29:01;;;;;;;41.97;23.90;;;;;;;4.67;100.00;94999.53;4944243;29;20090;-44
2022/12/09 07:31:30;;;;;;;44.05;23.50;;;;;;;5.05;100.00;94995.88;4951281;28;20175;-41
2022/12/09 07:34:01;;;;;;;41.30;24.33;;;;;;;5.17;100.00;94992.13;4954154;28;20451;-41
2022/12/09 07:36:31;;;;;;;41.88;23.75;;;;;;;5.02;100.00;95000.59;4951090;28;20089;-44
2022/12/09 07:39:02;;;;;;;42.67;24.08;;;;;;;5.18;100.00;94998.97;4946254;28;20083;-44
2022/12/09 07:41:30;;;;;;;38.65;22.85;;;;;;;5.39;100.00;94997.88;4950498;28;20086;-47
2022/12/09 07:43:58;;;;;;;43.03;22.42;;;;;;;5.23;100.00;94999.38;4953671;28;20086;-41
2022/12/09 07:46:27;;;;;;;44.97;25.38;;;;;;;4.95;100.00;94995.13;4950176;28;20083;-44
2022/12/09 07:48:57;;;;;;;38.90;22.05;;;;;;;4.82;100.00;94990.25;4950243;28;20098;-42
2022/12/09 07:51:28;;;;;;;46.00;25.10;;;;;;;4.96;100.00;94984.53;4946021;28;20079;-43
2022/12/09 07:53:57;;;;;;;46.13;24.80;;;;;;;5.34;100.00;94982.66;4950813;28;20087;-45
2022/12/09 07:56:27;;;;;;;45.50;24.75;;;;;;;5.38;100.00;94970.91;4948732;28;20085;-44
2022/12/09 07:58:55;;;;;;;41.23;22.70;;;;;;;5.39;100.00;94971.72;4943801;28;20534;-41
2022/12/09 08:01:28;;;;;;;40.90;23.23;;;;;;;5.13;100.00;94969.06;4959555;28;20490;-40
2022/12/09 08:03:57;;;;;;;41.88;22.73;;;;;;;5.10;100.00;94961.50;4953548;28;20090;-46
2022/12/09 08:06:29;;;;;;;40.60;23.90;;;;;;;5.22;100.00;94958.50;4947571;28;20066;-43
2022/12/09 08:08:59;;;;;;;42.85;23.30;;;;;;;5.25;100.00;94967.84;4948185;29;20082;-43
2022/12/09 08:11:29;;;;;;;38.20;21.87;;;;;;;5.46;100.00;94959.72;4949695;28;20091;-44
2022/12/09 08:14:00;;;;;;;44.47;24.80;;;;;;;5.41;100.00;94956.72;4951636;28;20576;-41
2022/12/09 08:16:36;;;;;;;40.30;23.17;;;;;;;5.20;100.00;94957.03;4955246;28;20152;-46
2022/12/09 08:19:04;;;;;;;44.20;24.73;;;;;;;5.15;100.00;94959.25;4955840;28;20070;-40
2022/12/09 08:21:35;;;;;;;38.78;22.13;;;;;;;4.73;100.00;94958.00;4951656;28;20090;-46
2022/12/09 08:24:06;;;;;;;;;;;;;;;4.73;100.00;94962.41;4954578;28;20548;-46
2022/12/09 08:26:35;;;;;;;49.83;27.58;;;;;;;4.54;100.00;94963.31;4953681;28;19961;-41
2022/12/09 08:29:08;;;;;;;49.40;25.10;;;;;;;4.46;100.00;94955.38;4946761;28;20082;-46
2022/12/09 08:31:37;;;;;;;46.22;25.33;;;;;;;4.27;100.00;94957.13;4956957;28;20558;-41
2022/12/09 08:34:09;;;;;;;46.67;25.77;;;;;;;4.73;100.00;94949.34;4954544;28;20078;-47
2022/12/09 08:36:39;;;;;;;46.75;25.90;;;;;;;4.91;100.00;94949.38;4947012;28;20122;-45
2022/12/09 08:39:09;;;;;;;53.70;27.23;;;;;;;4.83;100.00;94954.53;4950819;29;20087;-40
2022/12/09 08:41:38;;;;;;;50.30;26.88;;;;;;;4.47;100.00;94960.47;4947934;28;20083;-45
2022/12/09 08:44:10;;;;;;;48.80;26.88;;;;;;;4.15;100.00;94971.28;4940947;28;20090;-44
2022/12/09 08:46:40;;;;;;;54.50;27.50;;;;;;;4.71;100.00;94964.31;4953394;28;20430;-43
2022/12/09 08:49:09;;;;;;;49.38;28.17;;;;;;;4.16;100.00;94970.31;4952382;29;20741;-46
2022/12/09 08:51:40;;;;;;;51.42;29.33;;;;;;;4.22;100.00;94961.94;4952480;28;20082;-40
2022/12/09 08:54:09;;;;;;;52.97;28.85;;;;;;;4.29;100.00;94955.16;4948559;29;20089;-41
2022/12/09 08:56:38;;;;;;;44.60;23.70;;;;;;;4.41;100.00;94952.41;4949366;28;20086;-44
2022/12/09 08:59:06;;;;;;;45.35;22.75;;;;;;;4.29;100.00;94949.13;4952975;28;20070;-44
2022/12/09 09:01:35;;;;;;;51.13;26.40;;;;;;;4.84;100.00;94938.69;4955088;28;20071;-40
2022/12/09 09:04:06;;;;;;;45.67;24.80;;;;;;;4.32;100.00;94951.47;4949815;29;20501;-43
2022/12/09 09:06:36;;;;;;;45.38;26.05;;;;;;;4.35;100.00;94940.75;4954637;28;20137;-41
2022/12/09 09:09:07;;;;;;;50.30;26.58;;;;;;;4.72;100.00;94938.09;4950363;28;20090;-43
2022/12/09 09:11:38;;;;;;;50.70;26.33;;;;;;;4.08;100.00;94944.13;4953254;28;20085;-42
2022/12/09 09:14:09;;;;;;;41.95;23.00;;;;;;;4.22;100.00;94935.03;4951681;29;20086;-45
2022/12/09 09:16:38;;;;;;;;;;;;;;;4.06;100.00;94935.66;4946433;28;20526;-42
2022/12/09 09:19:07;;;;;;;36.22;18.70;;;;;;;4.07;100.00;94939.06;4949609;28;19964;-48
2022/12/09 09:21:36;;;;;;;42.00;21.63;;;;;;;4.44;100.00;94939.03;4951077;28;20102;-48
2022/12/09 09:24:10;;;;;;;42.97;23.10;;;;;;;4.43;100.00;94934.78;4946602;28;20078;-43
2022/12/09 09:26:40;;;;;;;45.33;25.17;;;;;;;4.17;100.00;94945.91;4951828;28;20086;-49
2022/12/09 09:29:11;;;;;;;48.85;25.92;;;;;;;4.33;100.00;94945.28;4948232;28;20090;-43
2022/12/09 09:31:40;;;;;;;45.70;23.95;;;;;;;4.79;100.00;94946.16;4948031;28;20078;-42
2022/12/09 09:34:09;;;;;;;37.78;20.90;;;;;;;4.46;100.00;94950.97;4953570;28;20082;-43
2022/12/09 09:36:40;;;;;;;44.50;23.45;;;;;;;4.42;100.00;94952.25;4952614;28;20090;-44
2022/12/09 09:39:10;;;;;;;;;;;;;;;3.93;100.00;94951.59;4950636;28;20102;-41
2022/12/09 09:41:44;;;;;;;43.50;24.70;;;;;;;4.44;100.00;94939.88;4948835;28;19957;-45
2022/12/09 09:44:18;;;;;;;41.90;20.77;;;;;;;4.26;100.00;94931.16;4948828;28;20098;-45
2022/12/09 09:46:48;;;;;;;44.38;21.83;;;;;;;4.50;100.00;94928.84;4950670;28;20094;-42
2022/12/09 09:49:22;;;;;;;41.58;25.35;;;;;;;4.10;100.00;94928.34;4950391;28;20086;-42
2022/12/09 09:51:51;;;;;;;40.40;21.33;;;;;;;4.38;100.00;94931.81;4946076;28;20091;-41
2022/12/09 09:54:21;;;;;;;44.80;22.42;;;;;;;4.17;100.00;94937.25;4950773;28;20067;-41
2022/12/09 09:56:54;;;;;;;41.85;21.67;;;;;;;4.20;100.00;94932.56;4955378;28;20814;-41
2022/12/09 09:59:37;;;;;;;28.30;15.45;;;;;;;4.09;100.00;94929.31;4950316;28;20086;-47
2022/12/09 10:02:16;;;;;;;43.22;21.33;;;;;;;4.44;100.00;94923.38;4953244;28;20104;-44
2022/12/09 10:04:54;;;;;;;32.33;17.95;;;;;;;4.14;100.00;94914.88;4948073;28;20535;-47
2022/12/09 10:07:27;;;;;;;40.58;22.42;;;;;;;4.17;100.00;94898.13;4948133;28;20082;-44
2022/12/09 10:10:04;;;;;;;46.83;23.65;;;;;;;4.25;100.00;94903.44;4947596;28;20083;-46
2022/12/09 10:12:40;;;;;;;45.72;24.40;;;;;;;4.28;100.00;94903.16;4948940;28;20091;-40
2022/12/09 10:15:11;;;;;;;47.42;24.02;;;;;;;4.01;100.00;94898.72;4949446;28;20090;-41
2022/12/09 10:17:47;;;;;;;39.35;20.10;;;;;;;4.32;100.00;94893.25;4950439;28;20085;-42
2022/12/09 10:20:17;;;;;;;46.67;26.80;;;;;;;3.98;100.00;94892.00;4948995;28;20062;-47
2022/12/09 10:22:50;;;;;;;42.20;23.15;;;;;;;4.60;100.00;94887.03;4948791;28;20097;-48
2022/12/09 10:25:23;;;;;;;40.40;20.63;;;;;;;4.32;100.00;94880.19;4946232;28;20078;-40
2022/12/09 10:27:55;;;;;;;40.63;20.63;;;;;;;4.54;100.00;94885.00;4949177;28;20095;-43
2022/12/09 10:30:24;;;;;;;45.20;19.55;;;;;;;4.34;100.00;94889.53;4950471;28;20083;-42
2022/12/09 10:33:00;;;;;;;41.83;20.13;;;;;;;4.48;100.00;94883.81;4949796;28;20089;-48
2022/12/09 10:35:31;;;;;;;38.78;20.15;;;;;;;4.98;100.00;94882.50;4943492;28;20086;-44
2022/12/09 10:38:06;;;;;;;41.42;21.85;;;;;;;5.17;100.00;94877.16;4949553;28;20082;-47
2022/12/09 10:40:45;;;;;;;39.97;22.05;;;;;;;4.47;100.00;94876.97;4950140;28;20078;-42
2022/12/09 10:43:37;;;;;;;32.83;16.85;;;;;;;4.07;100.00;94884.31;4947068;28;20765;-45
2022/12/09 10:46:09;;;;;;;36.05;17.58;;;;;;;4.09;100.00;94879.75;4948963;28;20484;-42
2022/12/09 10:48:52;;;;;;;35.22;17.25;;;;;;;4.25;100.00;94864.28;4952580;28;20086;-50
2022/12/09 10:51:24;;;;;;;42.17;22.23;;;;;;;4.35;100.00;94879.91;4949647;28;20083;-43
2022/12/09 10:53:55;;;;;;;45.83;24.60;;;;;;;4.14;100.00;94859.28;4946927;28;20087;-47
2022/12/09 10:56:27;;;;;;;28.30;14.77;;;;;;;4.35;100.00;94866.88;4947445;28;20079;-49
2022/12/09 10:59:09;;;;;;;40.80;20.15;;;;;;;4.58;100.00;94868.09;4947753;28;20110;-50
2022/12/09 11:01:49;;;;;;;44.28;21.80;;;;;;;4.83;100.00;94857.91;4945884;28;20135;-42
2022/12/09 11:04:23;;;;;;;46.25;22.88;;;;;;;5.00;100.00;94857.06;4947627;28;20091;-42
2022/12/09 11:06:53;;;;;;;43.88;23.23;;;;;;;5.04;100.00;94849.75;4947237;28;20489;-45
2022/12/09 11:09:30;;;;;;;42.63;23.08;;;;;;;4.84;100.00;94844.69;4946705;28;20323;-46
2022/12/09 11:12:02;;;;;;;48.30;24.58;;;;;;;4.70;100.00;94847.81;4950214;28;20087;-42
2022/12/09 11:14:34;;;;;;;37.08;19.95;;;;;;;4.69;100.00;94838.34;4948464;28;20518;-44
2022/12/09 11:17:14;;;;;;;42.75;20.27;;;;;;;5.35;100.00;94822.22;4949662;28;20090;-47
2022/12/09 11:19:46;;;;;;;38.50;18.92;;;;;;;5.20;100.00;94816.75;4948850;28;20108;-44
2022/12/09 11:22:23;;;;;;;38.60;19.10;;;;;;;5.13;100.00;94817.53;4950455;28;21299;-49
2022/12/09 11:24:54;;;;;;;46.60;22.65;;;;;;;5.45;100.00;94812.50;4944641;28;20568;-45
2022/12/09 11:27:31;;;;;;;45.03;21.77;;;;;;;5.87;100.00;94810.94;4948862;28;20083;-46
2022/12/09 11:30:06;;;;;;;43.22;23.02;;;;;;;5.53;100.00;94806.50;4950863;28;20795;-45
2022/12/09 11:32:57;;;;;;;36.63;19.73;;;;;;;5.54;100.00;94807.31;4951128;28;20083;-42